sensor_id;sensor_type;location;lat;lon;timestamp;pressure;altitude;pressure_sealevel;temperature;humidity
4528;BME280;62320;51.520;6.818;2023-07-13T00:01:36;100962.81;;;19.01;60.03
4528;BME280;62320;51.520;6.818;2023-07-13T00:11:40;100978.03;;;18.88;61.26
4528;BME280;62320;51.520;6.818;2023-07-13T00:21:42;100981.22;;;18.70;62.53
4528;BME280;62320;51.520;6.818;2023-07-13T00:31:43;100984.63;;;18.43;62.69
4528;BME280;62320;51.520;6.818;2023-07-13T00:41:45;100984.81;;;18.35;63.28
4528;BME280;62320;51.520;6.818;2023-07-13T01:01:51;100983.50;;;18.21;65.07
4528;BME280;62320;51.520;6.818;2023-07-13T01:11:53;100982.78;;;18.16;65.77
4528;BME280;62320;51.520;6.818;2023-07-13T01:21:55;100989.38;;;17.98;64.80
4528;BME280;62320;51.520;6.818;2023-07-13T01:31:57;100980.09;;;17.87;64.29
4528;BME280;62320;51.520;6.818;2023-07-13T01:41:58;100978.75;;;17.70;65.96
4528;BME280;62320;51.520;6.818;2023-07-13T01:52:00;100978.03;;;17.65;66.23
4528;BME280;62320;51.520;6.818;2023-07-13T02:02:01;100992.06;;;17.61;65.91
4528;BME280;62320;51.520;6.818;2023-07-13T02:12:03;100995.06;;;17.45;66.77
4528;BME280;62320;51.520;6.818;2023-07-13T02:22:05;100995.13;;;17.43;66.79
4528;BME280;62320;51.520;6.818;2023-07-13T02:32:07;100991.69;;;17.41;67.79
4528;BME280;62320;51.520;6.818;2023-07-13T02:42:09;100995.34;;;17.34;68.24
4528;BME280;62320;51.520;6.818;2023-07-13T02:52:10;100997.56;;;17.14;68.68
4528;BME280;62320;51.520;6.818;2023-07-13T03:02:12;101002.75;;;17.16;67.79
4528;BME280;62320;51.520;6.818;2023-07-13T03:12:14;101007.22;;;17.10;70.41
4528;BME280;62320;51.520;6.818;2023-07-13T03:22:17;101006.59;;;16.99;71.47
4528;BME280;62320;51.520;6.818;2023-07-13T03:32:19;101016.38;;;16.91;70.89
4528;BME280;62320;51.520;6.818;2023-07-13T03:42:20;101019.66;;;16.99;72.92
4528;BME280;62320;51.520;6.818;2023-07-13T03:52:22;101040.59;;;16.98;73.30
4528;BME280;62320;51.520;6.818;2023-07-13T04:02:23;101038.66;;;17.06;71.54
4528;BME280;62320;51.520;6.818;2023-07-13T04:12:25;101050.75;;;17.11;74.40
4528;BME280;62320;51.520;6.818;2023-07-13T04:22:29;101063.91;;;17.07;73.87
4528;BME280;62320;51.520;6.818;2023-07-13T04:32:31;101074.75;;;17.29;71.01
4528;BME280;62320;51.520;6.818;2023-07-13T04:42:33;101075.69;;;17.26;72.94
4528;BME280;62320;51.520;6.818;2023-07-13T04:52:35;101080.63;;;17.38;72.08
4528;BME280;62320;51.520;6.818;2023-07-13T05:02:38;101076.44;;;17.31;76.12
4528;BME280;62320;51.520;6.818;2023-07-13T05:12:40;101078.00;;;17.40;72.37
4528;BME280;62320;51.520;6.818;2023-07-13T05:22:43;101092.50;;;17.54;72.04
4528;BME280;62320;51.520;6.818;2023-07-13T05:32:50;101089.66;;;17.65;76.24
4528;BME280;62320;51.520;6.818;2023-07-13T05:42:52;101111.22;;;17.73;74.54
4528;BME280;62320;51.520;6.818;2023-07-13T05:52:54;101124.81;;;17.89;76.18
4528;BME280;62320;51.520;6.818;2023-07-13T06:02:55;101129.66;;;18.04;77.11
4528;BME280;62320;51.520;6.818;2023-07-13T06:12:58;101145.81;;;18.21;73.70
4528;BME280;62320;51.520;6.818;2023-07-13T06:23:00;101145.50;;;18.33;75.43
4528;BME280;62320;51.520;6.818;2023-07-13T06:33:02;101154.69;;;18.49;78.17
4528;BME280;62320;51.520;6.818;2023-07-13T06:43:04;101166.47;;;18.67;74.31
4528;BME280;62320;51.520;6.818;2023-07-13T06:53:05;101159.34;;;19.02;73.86
4528;BME280;62320;51.520;6.818;2023-07-13T07:03:07;101180.47;;;19.56;72.43
4528;BME280;62320;51.520;6.818;2023-07-13T07:13:09;101179.50;;;19.88;72.62
4528;BME280;62320;51.520;6.818;2023-07-13T07:23:10;101186.84;;;20.05;72.36
4528;BME280;62320;51.520;6.818;2023-07-13T07:33:12;101182.47;;;20.31;72.31
4528;BME280;62320;51.520;6.818;2023-07-13T07:43:14;101188.03;;;20.73;70.63
4528;BME280;62320;51.520;6.818;2023-07-13T07:53:15;101188.75;;;21.01;69.23
4528;BME280;62320;51.520;6.818;2023-07-13T08:03:17;101190.94;;;21.38;69.32
4528;BME280;62320;51.520;6.818;2023-07-13T08:13:22;101186.81;;;21.54;68.83
4528;BME280;62320;51.520;6.818;2023-07-13T08:23:23;101188.53;;;21.77;67.76
4528;BME280;62320;51.520;6.818;2023-07-13T08:33:25;101189.00;;;22.10;67.58
4528;BME280;62320;51.520;6.818;2023-07-13T08:43:30;101184.50;;;22.33;65.73
4528;BME280;62320;51.520;6.818;2023-07-13T08:53:37;101178.31;;;22.54;66.22
4528;BME280;62320;51.520;6.818;2023-07-13T09:04:00;101176.56;;;22.75;64.64
4528;BME280;62320;51.520;6.818;2023-07-13T09:14:45;101187.78;;;22.80;64.14
4528;BME280;62320;51.520;6.818;2023-07-13T09:35:19;101185.25;;;22.97;64.25
4528;BME280;62320;51.520;6.818;2023-07-13T09:45:30;101193.25;;;22.96;63.42
4528;BME280;62320;51.520;6.818;2023-07-13T09:55:35;101194.97;;;22.77;64.26
4528;BME280;62320;51.520;6.818;2023-07-13T10:05:43;101203.53;;;22.61;64.72
4528;BME280;62320;51.520;6.818;2023-07-13T10:15:45;101195.88;;;22.96;63.55
4528;BME280;62320;51.520;6.818;2023-07-13T10:25:47;101189.25;;;23.06;63.27
4528;BME280;62320;51.520;6.818;2023-07-13T10:35:51;101198.72;;;22.91;61.91
4528;BME280;62320;51.520;6.818;2023-07-13T10:45:55;101207.00;;;23.02;62.46
4528;BME280;62320;51.520;6.818;2023-07-13T10:56:00;101197.78;;;22.92;61.54
4528;BME280;62320;51.520;6.818;2023-07-13T11:16:45;101195.84;;;23.16;57.20
4528;BME280;62320;51.520;6.818;2023-07-13T11:36:49;101186.63;;;23.45;55.89
4528;BME280;62320;51.520;6.818;2023-07-13T11:46:53;101184.53;;;23.51;57.91
4528;BME280;62320;51.520;6.818;2023-07-13T11:56:59;101179.22;;;23.53;56.83
4528;BME280;62320;51.520;6.818;2023-07-13T12:07:14;101180.91;;;23.72;54.82
4528;BME280;62320;51.520;6.818;2023-07-13T12:17:19;101180.63;;;23.78;55.47
4528;BME280;62320;51.520;6.818;2023-07-13T12:27:27;101169.63;;;23.87;55.03
4528;BME280;62320;51.520;6.818;2023-07-13T12:37:29;101157.97;;;24.10;55.31
4528;BME280;62320;51.520;6.818;2023-07-13T12:47:40;101183.16;;;23.98;53.83
4528;BME280;62320;51.520;6.818;2023-07-13T12:57:53;101219.69;;;23.53;55.49
4528;BME280;62320;51.520;6.818;2023-07-13T13:07:55;101245.44;;;22.88;57.38
4528;BME280;62320;51.520;6.818;2023-07-13T13:17:56;101252.28;;;22.08;60.76
4528;BME280;62320;51.520;6.818;2023-07-13T13:28:00;101253.38;;;22.02;63.49
4528;BME280;62320;51.520;6.818;2023-07-13T13:38:01;101232.28;;;22.24;65.70
4528;BME280;62320;51.520;6.818;2023-07-13T13:48:03;101232.56;;;22.18;64.72
4528;BME280;62320;51.520;6.818;2023-07-13T13:58:04;101256.94;;;21.78;73.73
4528;BME280;62320;51.520;6.818;2023-07-13T14:08:13;101265.59;;;21.59;70.63
4528;BME280;62320;51.520;6.818;2023-07-13T14:18:15;101254.34;;;21.54;71.56
4528;BME280;62320;51.520;6.818;2023-07-13T14:28:23;101253.53;;;21.53;71.42
4528;BME280;62320;51.520;6.818;2023-07-13T14:38:26;101238.75;;;21.72;69.28
4528;BME280;62320;51.520;6.818;2023-07-13T14:48:28;101223.75;;;22.19;65.92
4528;BME280;62320;51.520;6.818;2023-07-13T14:58:30;101217.91;;;22.33;63.70
4528;BME280;62320;51.520;6.818;2023-07-13T15:08:33;101228.13;;;22.40;62.65
4528;BME280;62320;51.520;6.818;2023-07-13T15:18:36;101240.19;;;22.46;61.93
4528;BME280;62320;51.520;6.818;2023-07-13T15:28:42;101275.63;;;22.17;68.24
4528;BME280;62320;51.520;6.818;2023-07-13T15:38:45;101266.66;;;21.76;72.92
4528;BME280;62320;51.520;6.818;2023-07-13T15:48:49;101263.19;;;21.53;75.19
4528;BME280;62320;51.520;6.818;2023-07-13T15:58:51;101274.75;;;21.49;76.02
4528;BME280;62320;51.520;6.818;2023-07-13T16:08:53;101269.34;;;21.52;73.44
4528;BME280;62320;51.520;6.818;2023-07-13T16:18:57;101279.53;;;21.38;72.65
4528;BME280;62320;51.520;6.818;2023-07-13T16:28:59;101276.88;;;21.38;75.88
4528;BME280;62320;51.520;6.818;2023-07-13T16:39:11;101264.66;;;21.37;73.86
4528;BME280;62320;51.520;6.818;2023-07-13T16:49:25;101272.78;;;21.30;75.42
4528;BME280;62320;51.520;6.818;2023-07-13T16:59:31;101269.31;;;21.28;75.60
4528;BME280;62320;51.520;6.818;2023-07-13T17:09:33;101256.31;;;21.25;77.91
4528;BME280;62320;51.520;6.818;2023-07-13T17:19:34;101273.94;;;21.22;75.93
4528;BME280;62320;51.520;6.818;2023-07-13T17:29:36;101281.00;;;21.21;71.29
4528;BME280;62320;51.520;6.818;2023-07-13T17:39:38;101275.94;;;21.15;73.17
4528;BME280;62320;51.520;6.818;2023-07-13T17:49:40;101281.97;;;21.19;73.72
4528;BME280;62320;51.520;6.818;2023-07-13T17:59:41;101277.34;;;21.25;72.34
4528;BME280;62320;51.520;6.818;2023-07-13T18:09:43;101287.25;;;21.19;71.16
4528;BME280;62320;51.520;6.818;2023-07-13T18:19:47;101290.22;;;21.08;70.11
4528;BME280;62320;51.520;6.818;2023-07-13T18:29:50;101286.19;;;20.98;71.21
4528;BME280;62320;51.520;6.818;2023-07-13T18:39:52;101283.06;;;20.87;70.75
4528;BME280;62320;51.520;6.818;2023-07-13T18:49:54;101292.16;;;20.77;72.19
4528;BME280;62320;51.520;6.818;2023-07-13T18:59:58;101299.38;;;20.71;70.68
4528;BME280;62320;51.520;6.818;2023-07-13T19:09:59;101302.41;;;20.58;71.61
4528;BME280;62320;51.520;6.818;2023-07-13T19:20:01;101307.22;;;20.46;72.09
4528;BME280;62320;51.520;6.818;2023-07-13T19:30:04;101308.47;;;20.34;70.83
4528;BME280;62320;51.520;6.818;2023-07-13T19:40:23;101307.06;;;20.23;70.82
4528;BME280;62320;51.520;6.818;2023-07-13T19:50:26;101324.09;;;20.10;72.80
4528;BME280;62320;51.520;6.818;2023-07-13T20:00:29;101334.88;;;19.99;72.08
4528;BME280;62320;51.520;6.818;2023-07-13T20:10:31;101340.13;;;20.01;70.51
4528;BME280;62320;51.520;6.818;2023-07-13T20:20:37;101341.13;;;19.97;72.28
4528;BME280;62320;51.520;6.818;2023-07-13T20:30:45;101347.53;;;19.86;72.83
4528;BME280;62320;51.520;6.818;2023-07-13T20:40:48;101351.88;;;19.87;70.22
4528;BME280;62320;51.520;6.818;2023-07-13T20:50:56;101338.28;;;19.73;72.72
4528;BME280;62320;51.520;6.818;2023-07-13T21:00:58;101343.00;;;19.62;74.07
4528;BME280;62320;51.520;6.818;2023-07-13T21:11:00;101343.38;;;19.49;74.94
4528;BME280;62320;51.520;6.818;2023-07-13T21:21:02;101345.25;;;19.44;74.54
4528;BME280;62320;51.520;6.818;2023-07-13T21:31:06;101347.13;;;19.39;73.93
4528;BME280;62320;51.520;6.818;2023-07-13T21:41:27;101361.13;;;19.39;73.52
4528;BME280;62320;51.520;6.818;2023-07-13T21:51:29;101354.69;;;19.17;75.88
4528;BME280;62320;51.520;6.818;2023-07-13T22:01:31;101351.63;;;19.00;76.43
4528;BME280;62320;51.520;6.818;2023-07-13T22:11:38;101357.38;;;18.80;76.50
4528;BME280;62320;51.520;6.818;2023-07-13T22:21:39;101342.53;;;18.79;76.00
4528;BME280;62320;51.520;6.818;2023-07-13T22:31:42;101347.38;;;18.59;77.54
4528;BME280;62320;51.520;6.818;2023-07-13T22:41:44;101343.41;;;18.41;79.55
4528;BME280;62320;51.520;6.818;2023-07-13T22:51:46;101331.25;;;18.39;79.19
4528;BME280;62320;51.520;6.818;2023-07-13T23:01:48;101347.28;;;18.25;79.62
4528;BME280;62320;51.520;6.818;2023-07-13T23:11:50;101332.69;;;18.14;80.12
4528;BME280;62320;51.520;6.818;2023-07-13T23:21:52;101334.63;;;18.04;82.14
4528;BME280;62320;51.520;6.818;2023-07-13T23:31:54;101322.66;;;17.94;80.44
4528;BME280;62320;51.520;6.818;2023-07-13T23:41:56;101324.47;;;17.91;83.22
4528;BME280;62320;51.520;6.818;2023-07-13T23:52:02;101320.34;;;17.79;83.04
